createdAt,value
2018-09-06T00:01:48.105Z,101063.09
2018-09-06T00:04:16.441Z,101059.69
2018-09-06T00:06:44.808Z,101061.56
2018-09-06T00:09:13.162Z,101064.42
2018-09-06T00:11:41.593Z,101066.26
2018-09-06T00:14:09.926Z,101067.02
2018-09-06T00:16:38.311Z,101068.23
2018-09-06T00:19:06.683Z,101065.38
2018-09-06T00:21:35.371Z,101057.44
2018-09-06T00:24:03.732Z,101054.80
2018-09-06T00:26:32.580Z,101053.66
2018-09-06T00:29:02.613Z,101052.93
2018-09-06T00:31:31.942Z,101050.95
2018-09-06T00:34:01.318Z,101054.91
2018-09-06T00:36:30.278Z,101050.81
2018-09-06T00:38:59.078Z,101051.39
2018-09-06T00:41:27.405Z,101052.34
2018-09-06T00:43:55.753Z,101050.81
2018-09-06T00:46:24.118Z,101046.34
2018-09-06T00:48:53.405Z,101049.67
2018-09-06T00:51:24.190Z,101051.91
2018-09-06T00:53:53.423Z,101056.14
2018-09-06T00:56:22.979Z,101054.41
2018-09-06T00:58:51.636Z,101048.67
2018-09-06T01:01:20.013Z,101044.21
2018-09-06T01:03:48.416Z,101044.05
2018-09-06T01:06:16.749Z,101041.61
2018-09-06T01:08:45.200Z,101040.02
2018-09-06T01:11:13.541Z,101035.94
2018-09-06T01:13:41.979Z,101036.06
2018-09-06T01:16:10.314Z,101032.80
2018-09-06T01:18:38.745Z,101034.51
2018-09-06T01:21:07.357Z,101040.58
2018-09-06T01:23:40.573Z,101039.16
2018-09-06T01:26:08.912Z,101030.34
2018-09-06T01:28:37.274Z,101034.09
2018-09-06T01:31:06.017Z,101029.05
2018-09-06T01:33:34.365Z,101034.67
2018-09-06T01:36:08.114Z,101034.91
2018-09-06T01:38:37.412Z,101027.47
2018-09-06T01:41:05.777Z,101037.31
2018-09-06T01:43:34.113Z,101025.71
2018-09-06T01:46:02.504Z,101034.39
2018-09-06T01:48:31.861Z,101029.43
2018-09-06T01:51:00.192Z,101028.95
2018-09-06T01:53:30.215Z,101029.49
2018-09-06T01:55:59.188Z,101030.64
2018-09-06T01:58:28.103Z,101029.05
2018-09-06T02:00:57.797Z,101028.09
2018-09-06T02:03:27.333Z,101025.85
2018-09-06T02:05:56.121Z,101026.16
2018-09-06T02:08:25.373Z,101029.58
2018-09-06T02:10:54.721Z,101020.19
2018-09-06T02:13:24.120Z,101020.10
2018-09-06T02:15:54.628Z,101022.90
2018-09-06T02:18:23.834Z,101015.28
2018-09-06T02:20:53.185Z,101018.09
2018-09-06T02:23:23.374Z,101016.66
2018-09-06T02:25:55.047Z,101008.68
2018-09-06T02:28:24.353Z,101001.65
2018-09-06T02:30:54.669Z,101005.88
2018-09-06T02:33:24.122Z,101002.46
2018-09-06T02:35:54.505Z,101010.52
2018-09-06T02:38:24.265Z,101009.22
2018-09-06T02:40:53.489Z,101006.41
2018-09-06T02:43:24.290Z,101000.14
2018-09-06T02:45:55.578Z,101000.45
2018-09-06T02:48:30.195Z,100996.52
2018-09-06T02:51:04.812Z,100993.47
2018-09-06T02:53:34.249Z,100995.73
2018-09-06T02:56:03.538Z,100995.06
2018-09-06T02:58:31.870Z,100991.48
2018-09-06T03:01:00.245Z,100989.23
2018-09-06T03:03:30.329Z,100988.00
2018-09-06T03:05:59.932Z,100984.11
2018-09-06T03:08:29.363Z,100982.41
2018-09-06T03:11:02.845Z,100981.88
2018-09-06T03:13:31.811Z,100981.51
2018-09-06T03:16:01.138Z,100983.61
2018-09-06T03:18:30.209Z,100972.83
2018-09-06T03:20:59.115Z,100967.50
2018-09-06T03:23:28.299Z,100970.56
2018-09-06T03:25:57.566Z,100971.17
2018-09-06T03:28:26.805Z,100973.66
2018-09-06T03:30:56.157Z,100967.23
2018-09-06T03:33:25.515Z,100976.98
2018-09-06T03:35:55.738Z,100978.09
2018-09-06T03:38:24.242Z,100972.23
2018-09-06T03:40:53.126Z,100976.24
2018-09-06T03:43:23.863Z,100975.38
2018-09-06T03:45:54.176Z,100978.01
2018-09-06T03:48:23.473Z,100975.45
2018-09-06T03:50:54.091Z,100977.84
2018-09-06T03:53:23.305Z,100972.02
2018-09-06T03:55:53.271Z,100981.70
2018-09-06T03:58:22.402Z,100973.67
2018-09-06T04:00:51.538Z,100971.51
2018-09-06T04:03:19.872Z,100976.98
2018-09-06T04:05:48.282Z,100975.30
2018-09-06T04:08:16.710Z,100973.20
2018-09-06T04:10:45.161Z,100977.92
2018-09-06T04:13:13.489Z,100977.23
2018-09-06T04:15:41.834Z,100973.08
2018-09-06T04:18:10.188Z,100969.91
2018-09-06T04:20:38.569Z,100970.36
2018-09-06T04:23:06.906Z,100968.80
2018-09-06T04:25:35.246Z,100967.81
2018-09-06T04:28:03.650Z,100968.67
2018-09-06T04:30:32.029Z,100962.09
2018-09-06T04:33:01.050Z,100968.13
2018-09-06T04:35:30.843Z,100969.45
2018-09-06T04:38:00.333Z,100966.56
2018-09-06T04:40:29.266Z,100959.83
2018-09-06T04:42:57.717Z,100964.00
2018-09-06T04:45:26.049Z,100963.02
2018-09-06T04:47:54.390Z,100963.70
2018-09-06T04:50:23.706Z,100962.23
2018-09-06T04:52:53.034Z,100961.23
2018-09-06T04:55:22.277Z,100969.52
2018-09-06T04:57:52.174Z,100967.27
2018-09-06T05:00:22.586Z,100972.34
2018-09-06T05:02:52.518Z,100970.19
2018-09-06T05:05:22.651Z,100961.20
2018-09-06T05:07:52.598Z,100965.94
2018-09-06T05:10:20.932Z,100960.92
2018-09-06T05:12:51.441Z,100965.70
2018-09-06T05:15:19.897Z,100969.36
2018-09-06T05:17:49.164Z,100970.30
2018-09-06T05:20:17.567Z,100969.45
2018-09-06T05:22:45.913Z,100978.72
2018-09-06T05:25:15.249Z,100970.52
2018-09-06T05:27:44.733Z,100976.66
2018-09-06T05:30:13.090Z,100976.09
2018-09-06T05:32:41.407Z,100977.72
2018-09-06T05:35:09.877Z,100981.28
2018-09-06T05:37:38.308Z,100978.63
2018-09-06T05:40:06.708Z,100980.89
2018-09-06T05:42:35.057Z,100981.31
2018-09-06T05:45:03.406Z,100985.57
2018-09-06T05:47:33.474Z,100980.58
2018-09-06T05:50:04.141Z,100978.99
2018-09-06T05:52:33.551Z,100977.05
2018-09-06T05:55:02.917Z,100978.09
2018-09-06T05:57:32.044Z,100970.41
2018-09-06T06:00:01.124Z,100972.52
2018-09-06T06:02:31.533Z,100972.81
2018-09-06T06:05:01.793Z,100971.16
2018-09-06T06:07:41.576Z,100972.37
2018-09-06T06:10:10.939Z,100966.63
2018-09-06T06:12:39.381Z,100966.81
2018-09-06T06:15:07.800Z,100970.29
2018-09-06T06:17:36.147Z,100969.05
2018-09-06T06:20:05.463Z,100962.70
2018-09-06T06:22:34.730Z,100963.06
2018-09-06T06:25:04.090Z,100965.76
2018-09-06T06:27:32.493Z,100964.47
2018-09-06T06:30:03.153Z,100961.15
2018-09-06T06:32:32.906Z,100961.22
2018-09-06T06:35:02.145Z,100959.45
2018-09-06T06:37:31.205Z,100963.05
2018-09-06T06:40:00.431Z,100951.36
2018-09-06T06:42:28.830Z,100954.61
2018-09-06T06:44:57.204Z,100955.05
2018-09-06T06:47:26.080Z,100947.67
2018-09-06T06:49:55.469Z,100938.80
2018-09-06T06:52:24.749Z,100947.86
2018-09-06T06:54:54.002Z,100946.02
2018-09-06T06:57:22.572Z,100953.67
2018-09-06T06:59:52.238Z,100952.78
2018-09-06T07:02:21.639Z,100953.47
2018-09-06T07:04:51.533Z,100953.30
2018-09-06T07:07:19.865Z,100954.84
2018-09-06T07:09:49.107Z,100954.79
2018-09-06T07:12:17.516Z,100953.44
2018-09-06T07:14:46.766Z,100958.13
2018-09-06T07:17:15.242Z,100951.83
2018-09-06T07:19:43.728Z,100947.92
2018-09-06T07:22:13.053Z,100945.43
2018-09-06T07:24:41.389Z,100949.27
2018-09-06T07:27:09.733Z,100939.27
2018-09-06T07:29:38.960Z,100938.48
2018-09-06T07:32:07.948Z,100940.21
2018-09-06T07:34:36.351Z,100940.95
2018-09-06T07:37:05.492Z,100942.33
2018-09-06T07:39:33.826Z,100940.71
2018-09-06T07:42:02.230Z,100941.44
2018-09-06T07:44:31.745Z,100937.59
2018-09-06T07:47:00.761Z,100943.56
2018-09-06T07:49:29.708Z,100939.33
2018-09-06T07:51:58.061Z,100943.18
2018-09-06T07:54:27.406Z,100940.04
2018-09-06T07:56:55.748Z,100940.04
2018-09-06T07:59:25.614Z,100945.70
2018-09-06T08:01:54.794Z,100944.42
2018-09-06T08:04:23.177Z,100949.09
2018-09-06T08:06:53.063Z,100946.78
2018-09-06T08:09:23.022Z,100946.11
2018-09-06T08:11:52.065Z,100938.49
2018-09-06T08:14:21.846Z,100935.13
2018-09-06T08:16:51.180Z,100934.64
2018-09-06T08:19:20.372Z,100932.80
2018-09-06T08:21:48.705Z,100926.30
2018-09-06T08:24:17.887Z,100932.41
2018-09-06T08:26:48.085Z,100931.07
2018-09-06T08:29:17.544Z,100920.44
2018-09-06T08:31:46.397Z,100922.22
2018-09-06T08:34:15.434Z,100920.09
2018-09-06T08:36:43.871Z,100926.06
2018-09-06T08:39:13.021Z,100923.89
2018-09-06T08:41:41.573Z,100920.83
2018-09-06T08:44:10.800Z,100922.47
2018-09-06T08:46:39.173Z,100919.09
2018-09-06T08:49:07.630Z,100913.09
2018-09-06T08:51:37.051Z,100918.25
2018-09-06T08:54:05.369Z,100913.84
2018-09-06T08:56:37.785Z,100917.50
2018-09-06T08:59:07.161Z,100911.48
2018-09-06T09:01:39.857Z,100912.27
2018-09-06T09:04:08.545Z,100911.09
2018-09-06T09:06:38.489Z,100904.56
2018-09-06T09:09:09.009Z,100899.92
2018-09-06T09:11:37.448Z,100908.69
2018-09-06T09:14:05.825Z,100904.96
2018-09-06T09:16:35.240Z,100893.39
2018-09-06T09:19:03.598Z,100897.98
2018-09-06T09:21:32.081Z,100888.45
2018-09-06T09:24:01.396Z,100886.78
2018-09-06T09:26:29.716Z,100881.25
2018-09-06T09:28:59.030Z,100882.64
2018-09-06T09:31:27.394Z,100880.92
2018-09-06T09:33:55.834Z,100877.81
2018-09-06T09:36:24.282Z,100874.74
2018-09-06T09:38:53.985Z,100874.30
2018-09-06T09:41:23.611Z,100874.19
2018-09-06T09:43:53.109Z,100873.48
2018-09-06T09:48:51.316Z,100867.95
2018-09-06T09:51:20.255Z,100861.39
2018-09-06T09:53:48.685Z,100857.10
2018-09-06T09:56:17.045Z,100858.36
2018-09-06T09:58:46.272Z,100848.14
2018-09-06T10:01:15.269Z,100849.39
2018-09-06T10:06:23.246Z,100840.41
2018-09-06T10:08:58.198Z,100836.61
2018-09-06T10:11:26.527Z,100841.09
2018-09-06T10:13:54.861Z,100825.09
2018-09-06T10:16:23.253Z,100830.09
2018-09-06T10:18:52.223Z,100821.97
2018-09-06T10:21:21.372Z,100826.13
2018-09-06T10:23:51.395Z,100827.33
2018-09-06T10:26:19.834Z,100821.72
2018-09-06T10:28:48.202Z,100811.77
2018-09-06T10:31:18.572Z,100815.47
2018-09-06T10:33:47.516Z,100812.89
2018-09-06T10:36:16.449Z,100812.44
2018-09-06T10:38:45.359Z,100808.23
2018-09-06T10:41:13.705Z,100809.73
2018-09-06T10:43:42.073Z,100795.42
2018-09-06T10:46:10.473Z,100803.02
2018-09-06T10:48:39.169Z,100805.56
2018-09-06T10:51:07.492Z,100808.15
2018-09-06T10:53:35.858Z,100794.81
2018-09-06T10:56:04.181Z,100788.53
2018-09-06T10:58:33.416Z,100791.38
2018-09-06T11:01:08.226Z,100787.33
2018-09-06T11:03:36.554Z,100785.74
2018-09-06T11:06:04.933Z,100779.59
2018-09-06T11:08:33.417Z,100781.52
2018-09-06T11:11:02.811Z,100777.88
2018-09-06T11:13:31.190Z,100770.94
2018-09-06T11:15:59.698Z,100773.05
2018-09-06T11:18:28.205Z,100774.33
2018-09-06T11:20:57.649Z,100765.06
2018-09-06T11:23:25.998Z,100761.85
2018-09-06T11:25:56.189Z,100768.09
2018-09-06T11:28:24.781Z,100759.31
2018-09-06T11:30:53.113Z,100763.43
2018-09-06T11:33:22.705Z,100763.79
2018-09-06T11:35:51.333Z,100757.94
2018-09-06T11:38:20.480Z,100757.66
2018-09-06T11:40:50.631Z,100748.19
2018-09-06T11:43:19.049Z,100742.06
2018-09-06T11:45:48.469Z,100742.56
2018-09-06T11:48:17.517Z,100745.71
2018-09-06T11:50:47.940Z,100739.20
2018-09-06T11:53:17.133Z,100731.05
2018-09-06T11:55:47.601Z,100728.70
2018-09-06T11:58:16.462Z,100721.02
2018-09-06T12:00:46.342Z,100719.23
2018-09-06T12:03:16.523Z,100716.03
2018-09-06T12:05:45.384Z,100720.56
2018-09-06T12:08:13.764Z,100721.17
2018-09-06T12:10:42.099Z,100716.94
2018-09-06T12:13:10.417Z,100712.13
2018-09-06T12:15:39.644Z,100707.84
2018-09-06T12:18:08.906Z,100700.41
2018-09-06T12:20:37.313Z,100702.55
2018-09-06T12:23:05.769Z,100701.20
2018-09-06T12:25:34.180Z,100701.66
2018-09-06T12:28:02.605Z,100700.48
2018-09-06T12:30:30.956Z,100701.27
2018-09-06T12:32:59.942Z,100701.81
2018-09-06T12:35:28.422Z,100698.13
2018-09-06T12:37:56.771Z,100699.22
2018-09-06T12:41:28.372Z,100701.78
2018-09-06T12:43:57.810Z,100690.83
2018-09-06T12:46:26.206Z,100690.83
2018-09-06T12:48:54.655Z,100681.89
2018-09-06T12:51:22.989Z,100681.48
2018-09-06T12:53:52.243Z,100685.44
2018-09-06T12:56:22.289Z,100678.56
2018-09-06T12:58:51.682Z,100675.02
2018-09-06T13:01:22.259Z,100679.22
2018-09-06T13:03:52.202Z,100670.50
2018-09-06T13:06:22.613Z,100669.70
2018-09-06T13:08:50.953Z,100659.23
2018-09-06T13:11:21.293Z,100663.61
2018-09-06T13:13:51.365Z,100650.45
2018-09-06T13:16:21.429Z,100640.48
2018-09-06T13:18:49.903Z,100637.09
2018-09-06T13:21:18.578Z,100635.55
2018-09-06T13:23:47.862Z,100632.88
2018-09-06T13:26:17.517Z,100633.28
2018-09-06T13:28:46.548Z,100624.03
2018-09-06T13:31:14.961Z,100631.23
2018-09-06T13:33:43.288Z,100630.53
2018-09-06T13:36:11.628Z,100628.25
2018-09-06T13:38:39.948Z,100630.91
2018-09-06T13:41:08.284Z,100631.07
2018-09-06T13:43:36.662Z,100626.13
2018-09-06T13:46:05.245Z,100623.16
2018-09-06T13:48:33.614Z,100621.05
2018-09-06T13:51:01.995Z,100611.67
2018-09-06T13:53:30.325Z,100615.30
2018-09-06T13:55:58.912Z,100617.25
2018-09-06T13:58:27.374Z,100604.67
2018-09-06T14:00:55.705Z,100609.41
2018-09-06T14:03:24.044Z,100605.48
2018-09-06T14:05:55.281Z,100605.25
2018-09-06T14:08:24.136Z,100604.41
2018-09-06T14:10:53.598Z,100606.55
2018-09-06T14:13:22.489Z,100603.75
2018-09-06T14:15:52.319Z,100602.02
2018-09-06T14:18:21.353Z,100592.42
2018-09-06T14:20:50.325Z,100591.81
2018-09-06T14:23:19.488Z,100593.91
2018-09-06T14:25:48.813Z,100589.00
2018-09-06T14:28:17.783Z,100584.06
2018-09-06T14:30:46.602Z,100576.45
2018-09-06T14:33:16.468Z,100574.60
2018-09-06T14:35:45.523Z,100573.96
2018-09-06T14:38:13.953Z,100570.38
2018-09-06T14:40:42.241Z,100565.53
2018-09-06T14:43:10.577Z,100559.16
2018-09-06T14:45:38.985Z,100559.53
2018-09-06T14:48:07.317Z,100560.88
2018-09-06T14:50:35.649Z,100560.30
2018-09-06T14:53:03.991Z,100559.41
2018-09-06T14:55:32.354Z,100558.82
2018-09-06T14:58:00.768Z,100561.94
2018-09-06T15:00:29.101Z,100562.34
2018-09-06T15:02:57.436Z,100559.48
2018-09-06T15:05:25.752Z,100557.11
2018-09-06T15:07:54.113Z,100556.63
2018-09-06T15:10:23.557Z,100552.02
2018-09-06T15:12:52.439Z,100546.46
2018-09-06T15:15:21.486Z,100555.59
2018-09-06T15:17:50.902Z,100542.79
2018-09-06T15:20:19.262Z,100543.30
2018-09-06T15:22:48.262Z,100533.03
2018-09-06T15:25:17.158Z,100532.99
2018-09-06T15:27:45.755Z,100531.59
2018-09-06T15:30:14.089Z,100530.88
2018-09-06T15:32:42.504Z,100527.59
2018-09-06T15:35:10.823Z,100521.23
2018-09-06T15:37:39.161Z,100517.61
2018-09-06T15:40:07.590Z,100510.92
2018-09-06T15:42:35.954Z,100514.72
2018-09-06T15:45:05.612Z,100507.65
2018-09-06T15:47:33.936Z,100505.88
2018-09-06T15:50:02.777Z,100507.22
2018-09-06T15:52:31.216Z,100499.41
2018-09-06T15:54:59.637Z,100496.02
2018-09-06T15:57:27.982Z,100492.52
2018-09-06T15:59:56.318Z,100486.95
2018-09-06T16:02:24.957Z,100487.55
2018-09-06T16:04:53.294Z,100483.72
2018-09-06T16:07:22.312Z,100485.56
2018-09-06T16:09:51.235Z,100482.13
2018-09-06T16:12:20.295Z,100490.86
2018-09-06T16:14:49.108Z,100484.19
2018-09-06T16:17:18.097Z,100484.74
2018-09-06T16:19:47.742Z,100488.70
2018-09-06T16:22:16.629Z,100490.02
2018-09-06T16:24:45.511Z,100487.62
2018-09-06T16:27:13.844Z,100492.81
2018-09-06T16:29:42.186Z,100498.68
2018-09-06T16:32:10.521Z,100498.07
2018-09-06T16:34:38.905Z,100492.88
2018-09-06T16:37:07.333Z,100500.91
2018-09-06T16:39:35.910Z,100498.81
2018-09-06T16:42:05.185Z,100500.77
2018-09-06T16:44:33.548Z,100511.91
2018-09-06T16:47:01.874Z,100508.44
2018-09-06T16:49:31.216Z,100503.91
2018-09-06T16:51:59.630Z,100511.49
2018-09-06T16:54:28.057Z,100505.95
2018-09-06T16:56:56.400Z,100513.50
2018-09-06T16:59:24.941Z,100515.17
2018-09-06T17:01:54.289Z,100510.34
2018-09-06T17:04:23.853Z,100508.53
2018-09-06T17:06:53.273Z,100508.64
2018-09-06T17:09:22.904Z,100505.02
2018-09-06T17:11:52.828Z,100504.22
2018-09-06T17:14:22.089Z,100502.14
2018-09-06T17:16:52.320Z,100495.63
2018-09-06T17:19:21.397Z,100494.47
2018-09-06T17:21:50.486Z,100495.16
2018-09-06T17:24:20.354Z,100499.22
2018-09-06T17:26:48.828Z,100495.02
2018-09-06T17:29:18.348Z,100493.83
2018-09-06T17:31:47.664Z,100496.84
2018-09-06T17:34:16.719Z,100494.13
2018-09-06T17:36:45.261Z,100496.64
2018-09-06T17:39:14.054Z,100499.62
2018-09-06T17:41:42.406Z,100496.92
2018-09-06T17:44:10.797Z,100495.80
2018-09-06T17:46:39.139Z,100495.09
2018-09-06T17:49:07.639Z,100493.28
2018-09-06T17:51:35.982Z,100489.45
2018-09-06T17:54:04.311Z,100497.21
2018-09-06T17:56:32.646Z,100494.80
2018-09-06T17:59:01.312Z,100496.47
2018-09-06T18:01:33.852Z,100491.84
2018-09-06T18:04:02.705Z,100495.95
2018-09-06T18:06:31.051Z,100491.94
2018-09-06T18:08:59.401Z,100492.47
2018-09-06T18:11:28.309Z,100490.00
2018-09-06T18:13:57.905Z,100504.42
2018-09-06T18:16:26.496Z,100502.73
2018-09-06T18:18:55.185Z,100508.81
2018-09-06T18:21:24.279Z,100505.48
2018-09-06T18:23:54.892Z,100504.53
2018-09-06T18:26:23.701Z,100502.49
2018-09-06T18:28:52.425Z,100506.36
2018-09-06T18:31:22.934Z,100502.19
2018-09-06T18:33:52.269Z,100505.92
2018-09-06T18:36:20.834Z,100501.84
2018-09-06T18:38:51.581Z,100507.67
2018-09-06T18:41:21.337Z,100510.70
2018-09-06T18:43:51.454Z,100512.32
2018-09-06T18:46:20.576Z,100510.34
2018-09-06T18:48:48.909Z,100515.25
2018-09-06T18:51:20.479Z,100514.07
2018-09-06T18:53:49.206Z,100512.79
2018-09-06T18:56:19.005Z,100513.50
2018-09-06T18:58:48.692Z,100513.48
2018-09-06T19:01:17.932Z,100518.14
2018-09-06T19:03:47.497Z,100515.51
2018-09-06T19:06:16.664Z,100516.50
2018-09-06T19:08:45.746Z,100512.89
2018-09-06T19:11:14.342Z,100520.16
2018-09-06T19:13:42.853Z,100518.86
2018-09-06T19:16:11.252Z,100520.34
2018-09-06T19:18:40.704Z,100520.17
2018-09-06T19:21:09.073Z,100509.10
2018-09-06T19:23:37.429Z,100511.23
2018-09-06T19:26:05.936Z,100509.91
2018-09-06T19:28:34.481Z,100508.59
2018-09-06T19:31:02.832Z,100511.57
2018-09-06T19:33:32.122Z,100512.57
2018-09-06T19:36:00.479Z,100510.58
2018-09-06T19:38:31.874Z,100509.24
2018-09-06T19:41:00.334Z,100505.11
2018-09-06T19:43:28.749Z,100503.97
2018-09-06T19:45:57.124Z,100501.95
2018-09-06T19:48:26.633Z,100497.67
2018-09-06T19:50:55.030Z,100500.98
2018-09-06T19:53:23.412Z,100503.62
2018-09-06T19:55:53.377Z,100502.25
2018-09-06T19:58:23.128Z,100498.34
2018-09-06T20:00:51.906Z,100493.65
2018-09-06T20:03:20.889Z,100495.81
2018-09-06T20:05:51.516Z,100499.80
2018-09-06T20:08:21.420Z,100492.99
2018-09-06T20:10:51.373Z,100493.77
2018-09-06T20:13:21.476Z,100488.34
2018-09-06T20:15:49.814Z,100488.30
2018-09-06T20:18:18.527Z,100489.30
2018-09-06T20:20:48.899Z,100485.95
2018-09-06T20:23:20.689Z,100490.11
2018-09-06T20:25:49.926Z,100484.64
2018-09-06T20:28:18.922Z,100483.48
2018-09-06T20:30:51.079Z,100490.59
2018-09-06T20:33:21.741Z,100490.89
2018-09-06T20:35:51.191Z,100501.95
2018-09-06T20:38:21.830Z,100500.08
2018-09-06T20:40:52.336Z,100495.45
2018-09-06T20:43:22.344Z,100494.42
2018-09-06T20:45:53.372Z,100499.88
2018-09-06T20:48:22.818Z,100493.09
2018-09-06T20:50:52.176Z,100489.33
2018-09-06T20:53:22.644Z,100490.93
2018-09-06T20:55:53.164Z,100488.92
2018-09-06T20:58:23.323Z,100486.09
2018-09-06T21:00:53.714Z,100481.70
2018-09-06T21:03:22.777Z,100480.27
2018-09-06T21:05:52.749Z,100476.19
2018-09-06T21:08:22.462Z,100477.61
2018-09-06T21:10:51.457Z,100473.66
2018-09-06T21:13:19.833Z,100479.09
2018-09-06T21:15:49.356Z,100478.09
2018-09-06T21:18:18.534Z,100474.97
2018-09-06T21:20:48.834Z,100473.92
2018-09-06T21:23:18.552Z,100478.13
2018-09-06T21:25:47.805Z,100477.28
2018-09-06T21:28:16.857Z,100479.92
2018-09-06T21:30:45.272Z,100476.42
2018-09-06T21:33:14.669Z,100470.28
2018-09-06T21:35:43.890Z,100463.48
2018-09-06T21:38:12.346Z,100460.78
2018-09-06T21:40:40.729Z,100464.34
2018-09-06T21:43:09.985Z,100466.49
2018-09-06T21:45:38.361Z,100465.60
2018-09-06T21:48:06.732Z,100458.98
2018-09-06T21:50:35.948Z,100459.98
2018-09-06T21:53:04.460Z,100464.20
2018-09-06T21:55:32.834Z,100462.17
2018-09-06T21:58:01.223Z,100450.89
2018-09-06T22:00:29.581Z,100457.71
2018-09-06T22:03:03.205Z,100448.48
2018-09-06T22:05:31.557Z,100446.36
2018-09-06T22:07:59.925Z,100441.60
2018-09-06T22:10:28.281Z,100446.27
2018-09-06T22:12:57.608Z,100446.14
2018-09-06T22:15:25.984Z,100440.42
2018-09-06T22:17:54.320Z,100442.89
2018-09-06T22:20:23.956Z,100444.82
2018-09-06T22:22:53.991Z,100442.95
2018-09-06T22:25:23.692Z,100440.86
2018-09-06T22:27:53.048Z,100439.61
2018-09-06T22:30:21.901Z,100438.73
2018-09-06T22:32:51.026Z,100438.36
2018-09-06T22:35:19.457Z,100432.34
2018-09-06T22:37:48.756Z,100426.58
2018-09-06T22:40:18.117Z,100426.83
2018-09-06T22:42:47.592Z,100430.41
2018-09-06T22:45:16.865Z,100432.05
2018-09-06T22:47:47.397Z,100425.95
2018-09-06T22:50:17.097Z,100426.70
2018-09-06T22:52:47.011Z,100425.14
2018-09-06T22:55:15.402Z,100417.72
2018-09-06T22:57:44.673Z,100405.52
2018-09-06T23:00:13.007Z,100409.16
2018-09-06T23:03:49.313Z,100406.41
2018-09-06T23:06:24.523Z,100402.06
2018-09-06T23:08:54.208Z,100407.76
2018-09-06T23:11:23.200Z,100402.38
2018-09-06T23:13:53.054Z,100403.73
2018-09-06T23:16:21.833Z,100400.38
2018-09-06T23:18:51.077Z,100399.45
2018-09-06T23:21:21.426Z,100397.94
2018-09-06T23:23:51.537Z,100395.86
2018-09-06T23:26:21.488Z,100393.45
2018-09-06T23:28:50.270Z,100392.09
2018-09-06T23:31:18.601Z,100389.14
2018-09-06T23:33:46.966Z,100388.58
2018-09-06T23:36:15.883Z,100387.06
2018-09-06T23:38:44.221Z,100386.53
2018-09-06T23:41:12.605Z,100385.67
2018-09-06T23:43:41.003Z,100388.70
2018-09-06T23:46:10.265Z,100388.98
2018-09-06T23:48:38.622Z,100382.36
2018-09-06T23:51:07.976Z,100381.09
2018-09-06T23:53:36.369Z,100378.40
2018-09-06T23:56:04.730Z,100377.19
2018-09-06T23:58:33.125Z,100380.45
